sensor_id;sensor_type;location;lat;lon;timestamp;pressure;altitude;pressure_sealevel;temperature;humidity
69836;BME280;57132;51.972;4.450;2022-10-10T00:01:36;101345.50;;;11.02;84.34
69836;BME280;57132;51.972;4.450;2022-10-10T00:04:01;101350.63;;;11.05;84.07
69836;BME280;57132;51.972;4.450;2022-10-10T00:06:27;101348.81;;;11.06;84.24
69836;BME280;57132;51.972;4.450;2022-10-10T00:08:53;101341.09;;;11.01;84.07
69836;BME280;57132;51.972;4.450;2022-10-10T00:11:19;101342.16;;;10.99;84.40
69836;BME280;57132;51.972;4.450;2022-10-10T00:13:44;101339.88;;;10.93;84.74
69836;BME280;57132;51.972;4.450;2022-10-10T00:16:09;101343.78;;;10.87;85.09
69836;BME280;57132;51.972;4.450;2022-10-10T00:18:35;101332.56;;;10.82;85.46
69836;BME280;57132;51.972;4.450;2022-10-10T00:21:01;101327.03;;;10.85;85.41
69836;BME280;57132;51.972;4.450;2022-10-10T00:23:26;101335.13;;;10.83;85.47
69836;BME280;57132;51.972;4.450;2022-10-10T00:25:51;101332.56;;;10.82;85.35
69836;BME280;57132;51.972;4.450;2022-10-10T00:28:16;101321.88;;;10.82;85.00
69836;BME280;57132;51.972;4.450;2022-10-10T00:30:42;101326.25;;;10.83;85.34
69836;BME280;57132;51.972;4.450;2022-10-10T00:33:07;101326.56;;;10.78;85.36
69836;BME280;57132;51.972;4.450;2022-10-10T00:35:33;101326.25;;;10.69;85.90
69836;BME280;57132;51.972;4.450;2022-10-10T00:37:59;101319.13;;;10.69;86.17
69836;BME280;57132;51.972;4.450;2022-10-10T00:40:24;101324.25;;;10.72;86.08
69836;BME280;57132;51.972;4.450;2022-10-10T00:42:49;101325.69;;;10.78;86.02
69836;BME280;57132;51.972;4.450;2022-10-10T00:47:46;101317.50;;;10.81;85.66
69836;BME280;57132;51.972;4.450;2022-10-10T00:50:12;101319.28;;;10.80;85.54
69836;BME280;57132;51.972;4.450;2022-10-10T00:52:38;101320.44;;;10.76;85.58
69836;BME280;57132;51.972;4.450;2022-10-10T00:55:03;101316.16;;;10.74;85.82
69836;BME280;57132;51.972;4.450;2022-10-10T00:57:29;101320.94;;;10.69;86.05
69836;BME280;57132;51.972;4.450;2022-10-10T00:59:54;101320.38;;;10.64;86.55
69836;BME280;57132;51.972;4.450;2022-10-10T01:02:20;101311.50;;;10.63;86.62
69836;BME280;57132;51.972;4.450;2022-10-10T01:04:45;101318.84;;;10.59;86.66
69836;BME280;57132;51.972;4.450;2022-10-10T01:07:21;101312.66;;;10.59;86.83
69836;BME280;57132;51.972;4.450;2022-10-10T01:09:46;101305.69;;;10.56;87.17
69836;BME280;57132;51.972;4.450;2022-10-10T01:17:29;101303.63;;;10.47;87.78
69836;BME280;57132;51.972;4.450;2022-10-10T01:22:31;101301.25;;;10.43;87.89
69836;BME280;57132;51.972;4.450;2022-10-10T01:27:33;101294.56;;;10.36;88.39
69836;BME280;57132;51.972;4.450;2022-10-10T01:30:05;101294.06;;;10.29;88.85
69836;BME280;57132;51.972;4.450;2022-10-10T01:32:37;101302.34;;;10.24;89.08
69836;BME280;57132;51.972;4.450;2022-10-10T01:38:04;101286.63;;;10.20;89.68
69836;BME280;57132;51.972;4.450;2022-10-10T01:40:49;101282.06;;;10.22;89.81
69836;BME280;57132;51.972;4.450;2022-10-10T01:43:12;101276.72;;;10.22;90.05
69836;BME280;57132;51.972;4.450;2022-10-10T01:45:42;101270.63;;;10.20;90.21
69836;BME280;57132;51.972;4.450;2022-10-10T01:48:07;101271.75;;;10.16;90.35
69836;BME280;57132;51.972;4.450;2022-10-10T01:50:34;101267.19;;;10.18;90.66
69836;BME280;57132;51.972;4.450;2022-10-10T01:53:05;101265.69;;;10.14;90.87
69836;BME280;57132;51.972;4.450;2022-10-10T01:58:05;101262.34;;;10.10;91.39
69836;BME280;57132;51.972;4.450;2022-10-10T02:00:35;101268.72;;;10.07;91.52
69836;BME280;57132;51.972;4.450;2022-10-10T02:03:06;101267.38;;;10.00;91.64
69836;BME280;57132;51.972;4.450;2022-10-10T02:08:05;101256.69;;;10.00;92.42
69836;BME280;57132;51.972;4.450;2022-10-10T02:10:33;101258.63;;;9.98;92.53
69836;BME280;57132;51.972;4.450;2022-10-10T02:13:01;101254.16;;;9.99;92.27
69836;BME280;57132;51.972;4.450;2022-10-10T02:15:29;101252.50;;;9.96;92.62
69836;BME280;57132;51.972;4.450;2022-10-10T02:17:57;101244.03;;;9.90;93.06
69836;BME280;57132;51.972;4.450;2022-10-10T02:20:24;101250.03;;;9.93;93.24
69836;BME280;57132;51.972;4.450;2022-10-10T02:22:51;101242.41;;;9.87;93.58
69836;BME280;57132;51.972;4.450;2022-10-10T02:25:20;101248.91;;;9.83;93.69
69836;BME280;57132;51.972;4.450;2022-10-10T02:27:56;101241.56;;;9.87;94.16
69836;BME280;57132;51.972;4.450;2022-10-10T02:30:22;101235.28;;;9.88;94.32
69836;BME280;57132;51.972;4.450;2022-10-10T02:32:50;101238.22;;;9.83;94.27
69836;BME280;57132;51.972;4.450;2022-10-10T02:35:24;101233.06;;;9.80;94.48
69836;BME280;57132;51.972;4.450;2022-10-10T02:37:51;101229.63;;;9.78;94.72
69836;BME280;57132;51.972;4.450;2022-10-10T02:40:19;101220.22;;;9.72;94.87
69836;BME280;57132;51.972;4.450;2022-10-10T02:42:46;101227.66;;;9.67;95.30
69836;BME280;57132;51.972;4.450;2022-10-10T02:45:12;101218.97;;;9.64;95.92
69836;BME280;57132;51.972;4.450;2022-10-10T02:47:38;101222.50;;;9.64;96.16
69836;BME280;57132;51.972;4.450;2022-10-10T02:50:04;101216.31;;;9.64;96.15
69836;BME280;57132;51.972;4.450;2022-10-10T02:52:29;101218.97;;;9.64;96.38
69836;BME280;57132;51.972;4.450;2022-10-10T02:54:54;101222.38;;;9.66;96.45
69836;BME280;57132;51.972;4.450;2022-10-10T02:57:19;101218.00;;;9.65;96.21
69836;BME280;57132;51.972;4.450;2022-10-10T02:59:44;101219.34;;;9.57;96.36
69836;BME280;57132;51.972;4.450;2022-10-10T03:02:10;101222.28;;;9.53;96.61
69836;BME280;57132;51.972;4.450;2022-10-10T03:04:35;101216.28;;;9.49;97.05
69836;BME280;57132;51.972;4.450;2022-10-10T03:07:01;101216.84;;;9.40;97.32
69836;BME280;57132;51.972;4.450;2022-10-10T03:09:26;101211.00;;;9.33;97.59
69836;BME280;57132;51.972;4.450;2022-10-10T03:11:51;101210.44;;;9.28;98.33
69836;BME280;57132;51.972;4.450;2022-10-10T03:14:16;101208.72;;;9.27;98.70
69836;BME280;57132;51.972;4.450;2022-10-10T03:16:42;101211.38;;;9.27;98.91
69836;BME280;57132;51.972;4.450;2022-10-10T03:19:07;101210.53;;;9.27;98.98
69836;BME280;57132;51.972;4.450;2022-10-10T03:21:33;101213.19;;;9.27;99.12
69836;BME280;57132;51.972;4.450;2022-10-10T03:23:58;101204.44;;;9.25;99.13
69836;BME280;57132;51.972;4.450;2022-10-10T03:26:24;101202.03;;;9.20;99.43
69836;BME280;57132;51.972;4.450;2022-10-10T03:28:49;101204.72;;;9.20;99.39
69836;BME280;57132;51.972;4.450;2022-10-10T03:31:14;101210.13;;;9.19;99.85
69836;BME280;57132;51.972;4.450;2022-10-10T03:33:39;101208.59;;;9.15;100.00
69836;BME280;57132;51.972;4.450;2022-10-10T03:36:05;101218.31;;;9.16;100.00
69836;BME280;57132;51.972;4.450;2022-10-10T03:38:30;101210.38;;;9.14;100.00
69836;BME280;57132;51.972;4.450;2022-10-10T03:40:55;101212.19;;;9.14;100.00
69836;BME280;57132;51.972;4.450;2022-10-10T03:43:20;101209.69;;;9.10;100.00
69836;BME280;57132;51.972;4.450;2022-10-10T03:45:46;101208.16;;;9.06;100.00
69836;BME280;57132;51.972;4.450;2022-10-10T03:48:14;101206.56;;;9.04;100.00
69836;BME280;57132;51.972;4.450;2022-10-10T03:50:39;101201.50;;;8.99;100.00
69836;BME280;57132;51.972;4.450;2022-10-10T03:53:04;101209.50;;;8.99;100.00
69836;BME280;57132;51.972;4.450;2022-10-10T03:55:30;101211.38;;;8.97;100.00
69836;BME280;57132;51.972;4.450;2022-10-10T03:57:55;101207.84;;;8.97;100.00
69836;BME280;57132;51.972;4.450;2022-10-10T04:00:20;101216.13;;;8.92;100.00
69836;BME280;57132;51.972;4.450;2022-10-10T04:02:46;101216.13;;;8.92;100.00
69836;BME280;57132;51.972;4.450;2022-10-10T04:05:11;101211.81;;;8.90;100.00
69836;BME280;57132;51.972;4.450;2022-10-10T04:07:36;101213.78;;;8.86;100.00
69836;BME280;57132;51.972;4.450;2022-10-10T04:10:01;101213.38;;;8.78;100.00
69836;BME280;57132;51.972;4.450;2022-10-10T04:12:27;101206.44;;;8.75;100.00
69836;BME280;57132;51.972;4.450;2022-10-10T04:14:52;101209.97;;;8.76;100.00
69836;BME280;57132;51.972;4.450;2022-10-10T04:17:17;101211.00;;;8.73;100.00
69836;BME280;57132;51.972;4.450;2022-10-10T04:19:42;101208.50;;;8.70;100.00
69836;BME280;57132;51.972;4.450;2022-10-10T04:22:08;101210.31;;;8.70;100.00
69836;BME280;57132;51.972;4.450;2022-10-10T04:24:33;101200.59;;;8.69;100.00
69836;BME280;57132;51.972;4.450;2022-10-10T04:26:58;101206.03;;;8.67;100.00
69836;BME280;57132;51.972;4.450;2022-10-10T04:29:23;101201.78;;;8.63;100.00
69836;BME280;57132;51.972;4.450;2022-10-10T04:31:49;101194.94;;;8.59;100.00
69836;BME280;57132;51.972;4.450;2022-10-10T04:34:14;101196.69;;;8.60;100.00
69836;BME280;57132;51.972;4.450;2022-10-10T04:36:39;101200.25;;;8.59;100.00
69836;BME280;57132;51.972;4.450;2022-10-10T04:39:05;101199.50;;;8.57;100.00
69836;BME280;57132;51.972;4.450;2022-10-10T04:41:30;101208.34;;;8.57;100.00
69836;BME280;57132;51.972;4.450;2022-10-10T04:43:55;101203.88;;;8.58;100.00
69836;BME280;57132;51.972;4.450;2022-10-10T04:46:21;101212.72;;;8.58;100.00
69836;BME280;57132;51.972;4.450;2022-10-10T04:48:46;101207.47;;;8.57;100.00
69836;BME280;57132;51.972;4.450;2022-10-10T04:51:11;101219.09;;;8.56;100.00
69836;BME280;57132;51.972;4.450;2022-10-10T04:53:36;101209.34;;;8.55;100.00
69836;BME280;57132;51.972;4.450;2022-10-10T04:56:01;101206.78;;;8.53;100.00
69836;BME280;57132;51.972;4.450;2022-10-10T04:58:27;101215.56;;;8.55;100.00
69836;BME280;57132;51.972;4.450;2022-10-10T05:00:52;101218.28;;;8.54;100.00
69836;BME280;57132;51.972;4.450;2022-10-10T05:03:18;101218.28;;;8.54;100.00
69836;BME280;57132;51.972;4.450;2022-10-10T05:05:43;101227.22;;;8.53;100.00
69836;BME280;57132;51.972;4.450;2022-10-10T05:08:09;101221.06;;;8.52;100.00
69836;BME280;57132;51.972;4.450;2022-10-10T05:10:35;101227.50;;;8.48;100.00
69836;BME280;57132;51.972;4.450;2022-10-10T05:13:00;101231.06;;;8.47;100.00
69836;BME280;57132;51.972;4.450;2022-10-10T05:15:25;101233.72;;;8.47;100.00
69836;BME280;57132;51.972;4.450;2022-10-10T05:17:51;101232.03;;;8.46;100.00
69836;BME280;57132;51.972;4.450;2022-10-10T05:20:17;101223.44;;;8.41;100.00
69836;BME280;57132;51.972;4.450;2022-10-10T05:22:42;101232.38;;;8.40;100.00
69836;BME280;57132;51.972;4.450;2022-10-10T05:25:08;101225.66;;;8.33;100.00
69836;BME280;57132;51.972;4.450;2022-10-10T05:27:33;101223.25;;;8.28;100.00
69836;BME280;57132;51.972;4.450;2022-10-10T05:29:58;101232.06;;;8.29;100.00
69836;BME280;57132;51.972;4.450;2022-10-10T05:32:24;101218.94;;;8.26;100.00
69836;BME280;57132;51.972;4.450;2022-10-10T05:34:49;101226.06;;;8.25;100.00
69836;BME280;57132;51.972;4.450;2022-10-10T05:37:14;101224.25;;;8.26;100.00
69836;BME280;57132;51.972;4.450;2022-10-10T05:39:39;101221.69;;;8.24;100.00
69836;BME280;57132;51.972;4.450;2022-10-10T05:42:04;101227.88;;;8.25;100.00
69836;BME280;57132;51.972;4.450;2022-10-10T05:44:30;101229.47;;;8.27;100.00
69836;BME280;57132;51.972;4.450;2022-10-10T05:46:56;101233.94;;;8.27;100.00
69836;BME280;57132;51.972;4.450;2022-10-10T05:49:21;101241.06;;;8.26;100.00
69836;BME280;57132;51.972;4.450;2022-10-10T05:51:46;101234.81;;;8.27;100.00
69836;BME280;57132;51.972;4.450;2022-10-10T05:54:12;101234.75;;;8.29;100.00
69836;BME280;57132;51.972;4.450;2022-10-10T05:56:37;101234.63;;;8.30;100.00
69836;BME280;57132;51.972;4.450;2022-10-10T05:59:02;101231.13;;;8.30;100.00
69836;BME280;57132;51.972;4.450;2022-10-10T06:01:28;101227.50;;;8.31;100.00
69836;BME280;57132;51.972;4.450;2022-10-10T06:03:53;101232.13;;;8.27;100.00
69836;BME280;57132;51.972;4.450;2022-10-10T06:06:20;101239.09;;;8.30;100.00
69836;BME280;57132;51.972;4.450;2022-10-10T06:08:45;101237.28;;;8.30;100.00
69836;BME280;57132;51.972;4.450;2022-10-10T06:11:11;101233.78;;;8.30;100.00
69836;BME280;57132;51.972;4.450;2022-10-10T06:13:37;101236.28;;;8.33;100.00
69836;BME280;57132;51.972;4.450;2022-10-10T06:16:02;101231.66;;;8.36;100.00
69836;BME280;57132;51.972;4.450;2022-10-10T06:18:28;101229.88;;;8.37;100.00
69836;BME280;57132;51.972;4.450;2022-10-10T06:20:53;101235.91;;;8.41;100.00
69836;BME280;57132;51.972;4.450;2022-10-10T06:23:18;101233.72;;;8.47;100.00
69836;BME280;57132;51.972;4.450;2022-10-10T06:25:44;101230.00;;;8.51;100.00
69836;BME280;57132;51.972;4.450;2022-10-10T06:28:10;101233.25;;;8.56;100.00
69836;BME280;57132;51.972;4.450;2022-10-10T06:30:38;101235.31;;;8.67;100.00
69836;BME280;57132;51.972;4.450;2022-10-10T06:33:04;101246.53;;;8.72;100.00
69836;BME280;57132;51.972;4.450;2022-10-10T06:35:29;101241.63;;;8.80;100.00
69836;BME280;57132;51.972;4.450;2022-10-10T06:37:54;101251.06;;;8.86;100.00
69836;BME280;57132;51.972;4.450;2022-10-10T06:40:19;101251.59;;;8.93;100.00
69836;BME280;57132;51.972;4.450;2022-10-10T06:42:45;101246.94;;;8.96;100.00
69836;BME280;57132;51.972;4.450;2022-10-10T06:45:10;101255.34;;;9.04;100.00
69836;BME280;57132;51.972;4.450;2022-10-10T06:47:35;101251.56;;;9.08;100.00
69836;BME280;57132;51.972;4.450;2022-10-10T06:50:00;101243.97;;;9.17;100.00
69836;BME280;57132;51.972;4.450;2022-10-10T06:52:26;101246.19;;;9.24;100.00
69836;BME280;57132;51.972;4.450;2022-10-10T06:54:51;101250.38;;;9.28;100.00
69836;BME280;57132;51.972;4.450;2022-10-10T06:57:16;101254.88;;;9.42;100.00
69836;BME280;57132;51.972;4.450;2022-10-10T06:59:42;101256.25;;;9.49;100.00
69836;BME280;57132;51.972;4.450;2022-10-10T07:02:09;101268.44;;;9.53;100.00
69836;BME280;57132;51.972;4.450;2022-10-10T07:04:35;101269.41;;;9.52;100.00
69836;BME280;57132;51.972;4.450;2022-10-10T07:07:00;101273.88;;;9.52;100.00
69836;BME280;57132;51.972;4.450;2022-10-10T07:09:26;101273.19;;;9.48;100.00
69836;BME280;57132;51.972;4.450;2022-10-10T07:11:51;101281.19;;;9.48;100.00
69836;BME280;57132;51.972;4.450;2022-10-10T07:14:16;101276.44;;;9.53;100.00
69836;BME280;57132;51.972;4.450;2022-10-10T07:16:41;101292.81;;;9.61;100.00
69836;BME280;57132;51.972;4.450;2022-10-10T07:19:06;101286.56;;;9.63;100.00
69836;BME280;57132;51.972;4.450;2022-10-10T07:21:32;101286.00;;;9.72;100.00
69836;BME280;57132;51.972;4.450;2022-10-10T07:23:57;101276.31;;;9.85;100.00
69836;BME280;57132;51.972;4.450;2022-10-10T07:26:22;101266.69;;;9.97;100.00
69836;BME280;57132;51.972;4.450;2022-10-10T07:28:51;101268.59;;;10.09;100.00
69836;BME280;57132;51.972;4.450;2022-10-10T07:31:16;101269.31;;;10.27;100.00
69836;BME280;57132;51.972;4.450;2022-10-10T07:33:42;101276.56;;;10.39;100.00
69836;BME280;57132;51.972;4.450;2022-10-10T07:36:08;101268.44;;;10.55;100.00
69836;BME280;57132;51.972;4.450;2022-10-10T07:38:34;101282.13;;;10.77;100.00
69836;BME280;57132;51.972;4.450;2022-10-10T07:40:59;101285.94;;;11.00;100.00
69836;BME280;57132;51.972;4.450;2022-10-10T07:43:28;101277.16;;;11.13;100.00
69836;BME280;57132;51.972;4.450;2022-10-10T07:45:53;101284.69;;;11.33;100.00
69836;BME280;57132;51.972;4.450;2022-10-10T07:48:18;101282.50;;;11.52;100.00
69836;BME280;57132;51.972;4.450;2022-10-10T07:50:43;101295.88;;;11.52;100.00
69836;BME280;57132;51.972;4.450;2022-10-10T07:53:09;101306.44;;;11.54;100.00
69836;BME280;57132;51.972;4.450;2022-10-10T07:55:37;101295.22;;;11.49;100.00
69836;BME280;57132;51.972;4.450;2022-10-10T07:58:02;101297.66;;;11.52;100.00
69836;BME280;57132;51.972;4.450;2022-10-10T08:00:28;101295.09;;;11.50;100.00
69836;BME280;57132;51.972;4.450;2022-10-10T08:02:53;101305.78;;;11.50;100.00
69836;BME280;57132;51.972;4.450;2022-10-10T08:05:18;101313.28;;;11.45;100.00
69836;BME280;57132;51.972;4.450;2022-10-10T08:07:44;101315.19;;;11.43;100.00
69836;BME280;57132;51.972;4.450;2022-10-10T08:10:09;101322.25;;;11.44;100.00
69836;BME280;57132;51.972;4.450;2022-10-10T08:12:34;101326.63;;;11.45;100.00
69836;BME280;57132;51.972;4.450;2022-10-10T08:14:59;101321.09;;;11.48;100.00
69836;BME280;57132;51.972;4.450;2022-10-10T08:17:25;101318.84;;;11.55;100.00
69836;BME280;57132;51.972;4.450;2022-10-10T08:19:50;101325.63;;;11.61;100.00
69836;BME280;57132;51.972;4.450;2022-10-10T08:22:15;101327.13;;;11.65;100.00
69836;BME280;57132;51.972;4.450;2022-10-10T08:24:40;101319.53;;;11.71;100.00
69836;BME280;57132;51.972;4.450;2022-10-10T08:27:06;101329.81;;;11.77;100.00
69836;BME280;57132;51.972;4.450;2022-10-10T08:29:31;101336.00;;;11.78;100.00
69836;BME280;57132;51.972;4.450;2022-10-10T08:31:57;101337.22;;;11.87;100.00
69836;BME280;57132;51.972;4.450;2022-10-10T08:34:22;101338.00;;;11.89;100.00
69836;BME280;57132;51.972;4.450;2022-10-10T08:36:47;101347.94;;;11.87;100.00
69836;BME280;57132;51.972;4.450;2022-10-10T08:39:13;101331.47;;;11.93;100.00
69836;BME280;57132;51.972;4.450;2022-10-10T08:44:16;101315.97;;;11.98;100.00
69836;BME280;57132;51.972;4.450;2022-10-10T08:52:00;101349.56;;;12.15;100.00
69836;BME280;57132;51.972;4.450;2022-10-10T08:54:27;101340.16;;;12.22;100.00
69836;BME280;57132;51.972;4.450;2022-10-10T08:56:54;101339.50;;;12.31;100.00
69836;BME280;57132;51.972;4.450;2022-10-10T08:59:22;101338.44;;;12.34;100.00
69836;BME280;57132;51.972;4.450;2022-10-10T09:01:48;101345.19;;;12.39;100.00
69836;BME280;57132;51.972;4.450;2022-10-10T09:04:16;101352.66;;;12.47;100.00
69836;BME280;57132;51.972;4.450;2022-10-10T09:11:58;101350.06;;;12.84;100.00
69836;BME280;57132;51.972;4.450;2022-10-10T09:14:47;101348.16;;;13.10;100.00
69836;BME280;57132;51.972;4.450;2022-10-10T09:22:24;101361.22;;;13.51;96.09
69836;BME280;57132;51.972;4.450;2022-10-10T09:24:54;101374.34;;;14.02;95.63
69836;BME280;57132;51.972;4.450;2022-10-10T09:27:23;101370.50;;;14.40;91.96
69836;BME280;57132;51.972;4.450;2022-10-10T09:29:56;101370.31;;;14.65;90.75
69836;BME280;57132;51.972;4.450;2022-10-10T09:32:37;101371.53;;;14.61;90.10
69836;BME280;57132;51.972;4.450;2022-10-10T09:35:18;101375.44;;;14.57;91.52
69836;BME280;57132;51.972;4.450;2022-10-10T09:37:44;101384.38;;;14.58;92.10
69836;BME280;57132;51.972;4.450;2022-10-10T09:42:38;101389.50;;;14.49;92.50
69836;BME280;57132;51.972;4.450;2022-10-10T09:45:15;101389.97;;;14.55;92.58
69836;BME280;57132;51.972;4.450;2022-10-10T09:47:41;101391.91;;;14.52;92.79
69836;BME280;57132;51.972;4.450;2022-10-10T09:50:10;101396.94;;;14.57;93.95
69836;BME280;57132;51.972;4.450;2022-10-10T09:52:36;101408.88;;;14.53;93.71
69836;BME280;57132;51.972;4.450;2022-10-10T09:55:02;101405.09;;;14.56;95.14
69836;BME280;57132;51.972;4.450;2022-10-10T09:57:33;101409.00;;;14.51;94.66
69836;BME280;57132;51.972;4.450;2022-10-10T09:59:59;101412.03;;;14.47;95.37
69836;BME280;57132;51.972;4.450;2022-10-10T10:03:05;101421.78;;;14.48;96.42
69836;BME280;57132;51.972;4.450;2022-10-10T10:05:30;101423.06;;;14.66;97.04
69836;BME280;57132;51.972;4.450;2022-10-10T10:07:56;101420.66;;;14.97;95.98
69836;BME280;57132;51.972;4.450;2022-10-10T10:10:22;101433.81;;;15.11;94.79
69836;BME280;57132;51.972;4.450;2022-10-10T10:12:48;101425.88;;;15.10;93.34
69836;BME280;57132;51.972;4.450;2022-10-10T10:15:18;101423.91;;;15.12;93.75
69836;BME280;57132;51.972;4.450;2022-10-10T10:17:43;101433.34;;;15.06;93.98
69836;BME280;57132;51.972;4.450;2022-10-10T10:22:53;101431.63;;;14.94;95.29
69836;BME280;57132;51.972;4.450;2022-10-10T10:25:28;101443.09;;;14.85;95.91
69836;BME280;57132;51.972;4.450;2022-10-10T10:30:40;101457.66;;;14.82;95.63
69836;BME280;57132;51.972;4.450;2022-10-10T10:33:10;101456.28;;;14.76;95.98
69836;BME280;57132;51.972;4.450;2022-10-10T10:35:41;101459.47;;;14.70;96.31
69836;BME280;57132;51.972;4.450;2022-10-10T10:48:46;101460.31;;;14.60;99.09
69836;BME280;57132;51.972;4.450;2022-10-10T10:56:25;101465.09;;;14.79;98.77
69836;BME280;57132;51.972;4.450;2022-10-10T11:04:55;101477.72;;;14.89;98.06
69836;BME280;57132;51.972;4.450;2022-10-10T11:07:11;101473.41;;;14.87;98.71
69836;BME280;57132;51.972;4.450;2022-10-10T11:09:42;101477.19;;;14.84;99.98
69836;BME280;57132;51.972;4.450;2022-10-10T11:12:22;101472.81;;;14.83;100.00
69836;BME280;57132;51.972;4.450;2022-10-10T11:14:58;101467.06;;;14.88;100.00
69836;BME280;57132;51.972;4.450;2022-10-10T11:17:37;101476.25;;;14.85;100.00
69836;BME280;57132;51.972;4.450;2022-10-10T11:20:24;101474.50;;;14.84;100.00
69836;BME280;57132;51.972;4.450;2022-10-10T11:22:52;101477.09;;;14.86;100.00
69836;BME280;57132;51.972;4.450;2022-10-10T11:25:26;101481.47;;;14.87;100.00
69836;BME280;57132;51.972;4.450;2022-10-10T11:28:00;101483.19;;;14.88;100.00
69836;BME280;57132;51.972;4.450;2022-10-10T11:30:29;101481.34;;;14.88;100.00
69836;BME280;57132;51.972;4.450;2022-10-10T11:32:58;101489.69;;;14.85;100.00
69836;BME280;57132;51.972;4.450;2022-10-10T11:38:12;101495.66;;;14.78;100.00
69836;BME280;57132;51.972;4.450;2022-10-10T11:40:51;101500.63;;;14.71;100.00
69836;BME280;57132;51.972;4.450;2022-10-10T11:43:25;101505.00;;;14.61;100.00
69836;BME280;57132;51.972;4.450;2022-10-10T11:45:54;101492.00;;;14.43;100.00
69836;BME280;57132;51.972;4.450;2022-10-10T11:48:25;101499.63;;;14.25;100.00
69836;BME280;57132;51.972;4.450;2022-10-10T11:50:56;101505.81;;;14.15;100.00
69836;BME280;57132;51.972;4.450;2022-10-10T11:53:31;101514.84;;;14.14;100.00
69836;BME280;57132;51.972;4.450;2022-10-10T11:58:43;101529.06;;;14.03;100.00
69836;BME280;57132;51.972;4.450;2022-10-10T12:03:35;101532.81;;;14.00;100.00
69836;BME280;57132;51.972;4.450;2022-10-10T12:06:06;101537.97;;;14.03;100.00
69836;BME280;57132;51.972;4.450;2022-10-10T12:08:38;101539.28;;;13.98;100.00
69836;BME280;57132;51.972;4.450;2022-10-10T12:11:12;101538.66;;;13.94;100.00
69836;BME280;57132;51.972;4.450;2022-10-10T12:14:01;101544.97;;;13.93;100.00
69836;BME280;57132;51.972;4.450;2022-10-10T12:16:27;101543.38;;;13.91;100.00
69836;BME280;57132;51.972;4.450;2022-10-10T12:18:54;101547.25;;;13.87;100.00
69836;BME280;57132;51.972;4.450;2022-10-10T12:21:23;101550.28;;;13.82;100.00
69836;BME280;57132;51.972;4.450;2022-10-10T12:24:00;101553.91;;;13.81;100.00
69836;BME280;57132;51.972;4.450;2022-10-10T12:26:28;101556.59;;;13.81;100.00
69836;BME280;57132;51.972;4.450;2022-10-10T12:29:11;101557.38;;;13.83;100.00
69836;BME280;57132;51.972;4.450;2022-10-10T12:31:37;101566.47;;;13.81;100.00
69836;BME280;57132;51.972;4.450;2022-10-10T12:34:15;101569.38;;;13.77;100.00
69836;BME280;57132;51.972;4.450;2022-10-10T12:37:20;101567.69;;;13.76;100.00
69836;BME280;57132;51.972;4.450;2022-10-10T12:42:32;101580.66;;;13.70;100.00
69836;BME280;57132;51.972;4.450;2022-10-10T12:44:59;101581.66;;;13.69;100.00
69836;BME280;57132;51.972;4.450;2022-10-10T12:47:32;101591.72;;;13.65;100.00
69836;BME280;57132;51.972;4.450;2022-10-10T12:50:02;101594.66;;;13.49;100.00
69836;BME280;57132;51.972;4.450;2022-10-10T12:52:47;101606.25;;;13.24;100.00
69836;BME280;57132;51.972;4.450;2022-10-10T12:55:20;101611.69;;;13.10;100.00
69836;BME280;57132;51.972;4.450;2022-10-10T12:57:48;101617.03;;;12.97;100.00
69836;BME280;57132;51.972;4.450;2022-10-10T13:00:16;101631.81;;;12.90;100.00
69836;BME280;57132;51.972;4.450;2022-10-10T13:02:43;101632.63;;;12.78;100.00
69836;BME280;57132;51.972;4.450;2022-10-10T13:05:09;101634.09;;;12.57;100.00
69836;BME280;57132;51.972;4.450;2022-10-10T13:07:36;101646.03;;;12.51;100.00
69836;BME280;57132;51.972;4.450;2022-10-10T13:10:04;101645.63;;;12.44;100.00
69836;BME280;57132;51.972;4.450;2022-10-10T13:12:30;101647.72;;;12.39;100.00
69836;BME280;57132;51.972;4.450;2022-10-10T13:14:56;101654.34;;;12.34;100.00
69836;BME280;57132;51.972;4.450;2022-10-10T13:19:47;101656.34;;;12.30;100.00
69836;BME280;57132;51.972;4.450;2022-10-10T13:22:13;101656.66;;;12.25;100.00
69836;BME280;57132;51.972;4.450;2022-10-10T13:24:40;101666.69;;;12.22;100.00
69836;BME280;57132;51.972;4.450;2022-10-10T13:27:05;101688.22;;;12.20;100.00
69836;BME280;57132;51.972;4.450;2022-10-10T13:29:31;101689.25;;;12.18;100.00
69836;BME280;57132;51.972;4.450;2022-10-10T13:32:01;101682.94;;;12.19;100.00
69836;BME280;57132;51.972;4.450;2022-10-10T13:34:29;101690.03;;;12.20;100.00
69836;BME280;57132;51.972;4.450;2022-10-10T13:36:55;101694.50;;;12.19;100.00
69836;BME280;57132;51.972;4.450;2022-10-10T13:39:21;101706.84;;;12.22;100.00
69836;BME280;57132;51.972;4.450;2022-10-10T13:41:47;101704.06;;;12.23;100.00
69836;BME280;57132;51.972;4.450;2022-10-10T13:44:13;101710.31;;;12.24;100.00
69836;BME280;57132;51.972;4.450;2022-10-10T13:46:39;101723.38;;;12.28;100.00
69836;BME280;57132;51.972;4.450;2022-10-10T13:49:12;101733.97;;;12.30;100.00
69836;BME280;57132;51.972;4.450;2022-10-10T13:51:43;101721.09;;;12.22;100.00
69836;BME280;57132;51.972;4.450;2022-10-10T13:56:53;101734.41;;;12.24;100.00
69836;BME280;57132;51.972;4.450;2022-10-10T13:59:18;101741.94;;;12.32;100.00
69836;BME280;57132;51.972;4.450;2022-10-10T14:01:45;101741.63;;;12.36;100.00
69836;BME280;57132;51.972;4.450;2022-10-10T14:06:47;101745.44;;;12.46;100.00
69836;BME280;57132;51.972;4.450;2022-10-10T14:09:22;101744.19;;;12.52;100.00
69836;BME280;57132;51.972;4.450;2022-10-10T14:11:49;101752.59;;;12.60;100.00
69836;BME280;57132;51.972;4.450;2022-10-10T14:14:19;101746.25;;;12.75;100.00
69836;BME280;57132;51.972;4.450;2022-10-10T14:16:55;101749.94;;;12.87;100.00